ACT        NSW        VIC        QLD        SA        WA        TAS        NT        INFO        CALC            by VK5ZD

Past Date/Time: (dd/mm/yyyy hh:mm or blank for current data)    

  Atmospheric Gas Attenuation - ITU Rec 676-11   --------------- dB/100km ---------------
WA Stations Date Time Temp RH % AH g/m3 Dew Point Wind Direction Speed kph Gust kph Barometer mB Rainfall Since 9am 24GHz 47GHz 76GHz 122GHz 134GHz 241GHz
Albany Airport 07/09 03:30 10.6 93 9.08 9.5 9 9 1031 0 20.8 28.4 44.3 116.2 110.8 381.4
Badgingarra 07/09 03:30 11.2 87 8.82 9.1 13 19 1013.1 0 20.2 27.0 42.0 110.4 104.8 360.5
Barimunya 07/09 03:30 15.3 54 7.05 6.1 20 30 1013.6 0 16.2 23.1 33.2 86.7 77.1 263.9
Barrow Island 07/09 03:30 21 61 11.17 13.2 37 44 1016.1 0 24.7 28.0 46.3 121.9 122.2 422.8
Bedout Island 06/09 19:00 22.4 75 14.89 17.8 41 46 1013.8 0 32.5 33.7 60.8 160.6 170.4 591.0
Bickley 07/09 03:30 9.8 91 8.45 8.4 24 39 1013.1 0 19.5 26.8 41.2 108.2 101.5 348.9
Boolgeeda 07/09 03:30 14 58 7 6 2 4 1016.7 0 16.2 23.5 33.6 87.9 77.9 266.7
Bridgetown 07/09 03:30 4.2 96 6.19 3.6 0 0 1030.4 0.2 14.8 25.3 35.2 91.8 78.0 265.5
Broome 07/09 03:30 23.4 72 15.14 18.1 13 19 1014.6 0 32.9 33.7 61.2 161.5 171.8 596.1
Bunbury 07/09 03:30 7.8 100 8.16 7.8 6 9 1029.9 0 18.9 27.6 41.8 109.5 101.5 348.4
Busselton Airport 07/09 03:30 6.8 96 7.35 6.2 7 9 1030 0 17.2 26.5 38.9 101.6 91.3 312.5
Cape Leeuwin 07/09 03:30 13.6 68 8 7.8 30 35 1030.7 0 18.3 25.6 38.3 100.1 92.1 316.3
Cape Naturaliste 07/09 03:30 9.8 80 7.42 6.5 32 41 1029.2 0 17.2 25.7 37.7 98.5 88.7 303.9
Carnarvon 07/09 01:30 17 82 11.86 13.9 22 28 1020.8 0 26.4 30.6 51.9 136.7 138.9 480.4
Christmas Creek 07/09 03:30 13.7 52 6.16 4 6 6 1014.6 0 14.4 22.2 30.5 79.7 67.8 231.1
Christmas Island 07/09 03:30 22.8 82 16.66 19.6 19 30 1015.8 0 36.2 36.8 68.5 181.1 195.7 679.2
Collie East 07/09 03:30 9.1 90 7.99 7.5 4 11 1013.1 0.2 18.5 26.3 39.7 104.0 96.1 329.7
Coondewanna 07/09 03:30 10.5 64 6.21 4 11 11 1014 0 14.6 23.0 31.9 83.4 71.2 242.6
Cunderdin Airport 07/09 03:30 11.5 87 8.99 9.4 11 15 1027.5 0 20.5 27.8 43.3 113.5 108.0 371.5
Curtin 07/09 03:30 17.7 97 14.63 17.2 9 9 1014 0 32.3 35.1 63.5 167.6 177.4 614.8
Dalwallinu 07/09 03:30 10.4 91 8.77 9 19 26 1025.2 0 20.1 27.7 42.8 112.3 106.2 365.3
Derby 07/09 03:30 19.7 86 14.6 17.3 9 11 1014.9 0 32.1 34.3 61.7 163.0 172.4 597.7
Dwellingup 07/09 03:30 9.6 90 8.25 8 17 24 1028.9 0 19.0 27.2 41.2 108.0 100.3 344.5
Eliwana Airport 07/09 03:30 14.6 54 6.76 5.4 2 4 1013.1 0 15.6 22.8 32.3 84.5 74.2 253.6
Esperance 07/09 03:30 13.8 88 10.49 11.8 11 17 1028.9 0 23.6 29.7 48.4 127.3 125.8 434.1
Esperance Airport 07/09 03:30 12.9 92 10.37 11.6 17 20 1028.8 0 23.4 29.8 48.5 127.3 125.5 433.1
Eucla 07/09 03:30 13.1 88 10.04 11.2 24 39 1024.8 0.4 22.7 29.0 46.7 122.7 120.1 414.2
Fitzroy Crossing 07/09 03:30 20.6 66 11.81 14 9 13 1014.3 0 26.0 29.1 49.0 129.2 131.2 454.0
Forrest 07/09 03:30 12.2 89 9.61 10.4 1023.6 0.4 21.8 28.5 45.3 119.1 115.3 397.3
Fortescue Dave Forrest 07/09 03:30 15.2 54 7.01 6 9 13 1014.3 0 16.1 23.1 33.1 86.5 76.7 262.7
Garden Island 07/09 03:30 12.3 86 9.34 10 19 20 1028.2 0 21.2 28.2 44.3 116.4 111.8 385.0
Geraldton Airport 07/09 03:30 10.4 94 9.06 9.5 11 15 1023.7 0.2 20.7 28.1 44.0 115.5 110.2 379.2
Gerangamete (Cfa) 07/09 05:20 9.2 96 8.58 8.6 9 11 1013.1 1.4 19.8 27.2 42.1 110.5 104.2 358.0
Giles* 07/09 05:00 20.1 57 9.91 11.3 24 33 1013.3 2 22.1 26.1 41.7 109.7 107.1 369.6
Gingin Airport 07/09 03:30 12.6 80 8.85 9.2 17 20 1027.3 0 20.2 27.2 42.1 110.3 104.5 359.6
Golden Grove 07/09 03:30 13.2 73 8.38 8.5 19 26 1022 0.2 19.1 26.0 39.6 103.8 97.0 333.2
Gooseberry Hill 07/09 03:30 10.9 92 9.15 9.7 20 46 1013.1 0 20.9 27.7 43.6 114.6 109.8 378.0
Gudai-Darri Mine 07/09 03:30 17.5 50 7.45 7 17 24 1013.1 0 17.0 23.1 33.7 88.2 79.7 273.4
Halls Creek 07/09 05:00 24.5 40 8.95 10 15 19 1013.7 0 19.8 23.5 36.1 94.7 90.0 310.4
Hopetoun North 07/09 03:30 15 93 11.93 13.9 15 20 1028.2 5.2 26.6 31.8 54.0 142.0 144.4 499.4
Iron Bridge Mine 07/09 03:30 14.3 43 5.28 1.9 9 11 1014.3 0 12.5 20.8 27.2 70.7 56.9 193.1
Jacup 07/09 03:30 11.7 100 10.46 11.7 15 20 1029 4.2 23.7 30.4 49.6 130.4 128.9 444.6
Jandakot 07/09 03:30 10.9 83 8.26 8.1 7 9 1027.9 0 19.0 26.8 40.5 106.2 98.7 339.0
Kalgoorlie-Boulder 07/09 03:30 12.9 69 7.78 7.4 24 32 1023.9 8 17.9 25.2 37.4 98.0 89.6 307.3
Kalumburu 07/09 05:00 20.7 97 17.46 20.2 0 0 1014.9 0 38.1 39.2 74.2 196.3 213.6 741.3
Karijini North 07/09 03:30 17 49 7.09 6.2 15 24 1013.8 0 16.2 22.7 32.6 85.3 75.9 260.1
Karnet 06/09 15:00 14.5 64 7.96 7.8 6 1013.1 0 18.2 24.7 36.9 96.8 89.2 306.5
Karratha 07/09 03:30 16.7 46 6.54 5 17 19 1015.7 0 15.1 22.1 30.8 80.5 69.8 238.5
Katanning Rs 07/09 03:30 9.2 97 8.66 8.7 13 19 1029.8 0.2 19.9 28.0 43.2 113.3 106.7 366.9
Koolan Island / Koolan Central 07/09 03:30 22.8 84 17.07 20 17 24 1013.1 0 37.1 37.4 70.3 185.8 201.5 699.4
Kununurra Airport 07/09 05:00 20.5 92 16.37 19.2 0 0 1014 0 35.8 37.2 69.2 182.8 197.0 683.6
Lake Grace 07/09 03:30 11.8 90 9.47 10.2 9 13 1028.5 0 21.5 28.6 45.2 118.6 114.4 394.0
Lancelin (Defence) 07/09 03:30 9.4 100 9.05 9.4 13 15 1026.5 0.2 20.8 28.5 44.7 117.2 111.8 384.5
Laverton 07/09 03:30 12.3 99 10.75 12.1 22 28 1019.1 1.8 24.3 30.3 50.0 131.7 131.1 452.5
Learmonth 07/09 03:30 15.6 84 11.17 12.9 19 24 1018.3 0 25.0 29.8 49.7 130.9 131.3 453.8
Legendre Island 07/09 03:30 20.3 52 9.14 10.1 22 28 1015.2 0 20.4 25.0 38.8 101.8 97.3 335.5
Leinster 07/09 03:30 12.6 88 9.74 10.7 19 28 1017.6 0.2 22.1 28.3 45.4 119.2 116.0 399.8
Leonora Airport 07/09 03:30 12.3 90 9.77 10.7 22 30 1019.8 58.4 22.2 28.6 45.8 120.3 117.1 403.5
Lombadina 07/09 03:30 20.1 92 15.99 18.8 6 6 1015.1 0 35.0 36.7 67.8 179.1 192.4 667.4
Mandora 07/09 03:30 16 91 12.4 14.5 6 9 1013.9 0 27.6 31.7 54.6 143.9 147.8 511.4
Mandurah 07/09 03:30 11.4 79 8.11 7.9 6 9 1028.3 0 18.6 26.4 39.7 103.9 96.1 329.9
Manjimup 07/09 03:30 7.8 88 7.18 5.9 13 22 1030.4 0.2 16.8 26.0 37.7 98.5 87.8 300.4
Marble Bar 07/09 03:30 18.1 37 5.72 3.2 9 11 1014.1 0 13.3 20.5 27.4 71.4 59.2 201.4
Mardie 07/09 03:30 15.6 55 7.31 6.6 7 9 1016.1 0 16.8 23.5 34.1 89.2 80.1 274.6
Meekatharra 07/09 03:30 13.2 83 9.53 10.4 28 37 1017.2 0.2 21.6 27.8 44.1 115.9 112.1 386.4
Millendon (Swan Valley) 07/09 03:30 12.8 78 8.74 9.1 4 6 1027.5 0 19.9 27.0 41.5 108.8 102.8 353.5
Morawa Airport 07/09 03:30 10.7 92 9.04 9.5 15 20 1024.1 0 20.7 28.0 43.8 114.8 109.5 376.8
Mount Keith 07/09 03:30 11.9 97 10.27 11.4 19 26 1017.4 0 23.3 29.5 48.1 126.5 124.6 429.8
Mount Magnet Airport 07/09 03:30 13.4 77 8.95 9.5 26 35 1020.5 0 20.3 26.9 41.8 109.6 104.2 358.7
Munglinup West 07/09 03:30 11 96 9.61 10.4 7 9 1028.3 0.2 21.9 29.1 46.3 121.5 117.6 405.0
Newdegate 07/09 03:30 11.7 92 9.62 10.4 17 20 1027.9 0.2 21.9 28.8 45.9 120.4 116.6 401.7
Newman Airport 07/09 03:30 12.6 62 6.86 5.5 9 15 1013.8 0 15.9 23.5 33.6 87.8 77.4 264.6
Norseman Airport 07/09 03:30 12.9 82 9.24 9.9 13 20 1026.3 0 21.0 27.7 43.5 114.1 109.4 376.6
North Island 07/09 03:30 16.9 81 11.65 13.6 35 44 1023.7 0.8 25.9 30.4 51.2 134.8 136.4 471.7
Onslow Airport 07/09 03:30 16.7 63 8.95 9.6 22 28 1017.7 0 20.2 25.8 39.9 104.8 99.6 343.2
Paraburdoo 07/09 03:30 14.9 60 7.65 7.2 4 7 1014.8 0 17.5 24.1 35.6 93.3 85.0 291.6
Pearce 07/09 03:30 13 77 8.73 9.1 15 20 1027.1 0 19.9 26.9 41.4 108.4 102.3 352.0
Perth 07/09 03:30 10.9 85 8.46 8.5 2 9 1027.9 0 19.4 27.1 41.4 108.4 101.5 348.7
Perth Airport 07/09 03:30 13 77 8.73 9.1 13 19 1027.4 0.2 19.9 26.9 41.4 108.4 102.3 352.0
Port Hedland 07/09 03:30 16.2 64 8.83 9.4 15 19 1014.4 0 20.0 25.6 39.6 103.8 98.5 339.0
Portable Btsa (Dfes) 07/09 03:20 13.9 84 10.07 11.3 6 7 1013.1 0 22.7 28.3 45.8 120.5 118.2 407.7
Portable Btsd (Dfes) 07/09 03:20 11.2 92 9.33 10 13 15 1013.1 1 21.3 27.9 44.2 116.2 111.9 385.3
Portable Btse (Dfes) 07/09 03:20 16.2 84 11.58 13.6 4 6 1013.1 0 25.8 30.1 50.8 133.9 135.5 468.7
Portable Btsf (Dfes) 07/09 03:00 15.2 80 10.38 11.8 20 28 1013.1 0 23.3 28.4 46.3 121.9 120.4 415.8
Portable Btsh (Dfes) 07/09 03:20 13.8 78 9.29 10.1 9 11 1013.1 0 21.1 27.0 42.6 111.9 107.6 370.7
Portable Btsj (Dfes) 07/09 03:20 9.6 90 8.25 8.1 6 7 1013.1 0 19.0 26.6 40.5 106.3 99.0 340.1
Portable Btsl (Dfes) 07/09 03:20 13.4 85 9.88 10.9 11 15 1013.1 0 22.4 28.1 45.3 119.1 116.3 401.0
Portable Btsm (Dfes) 07/09 03:20 13.4 80 9.3 10.1 7 9 1013.1 1 21.1 27.2 42.9 112.6 108.3 373.1
Portable Btsn (Dfes) 07/09 03:20 11.4 95 9.75 10.7 17 19 1013.1 8 22.2 28.6 45.9 120.7 117.5 405.1
Portable Btso (Dfes) 07/09 03:20 8.8 88 7.66 6.9 7 9 1013.1 0 17.8 25.8 38.4 100.7 91.9 315.1
Rocky Gully South 07/09 03:30 9.1 86 7.63 6.9 13 17 1013.1 0 17.7 25.7 38.2 100.0 91.2 312.5
Roebourne Airport 07/09 03:30 14.6 51 6.38 4.6 13 15 1015.7 0 14.8 22.3 31.1 81.1 69.7 238.0
Rottnest Island 07/09 03:30 12.4 78 8.52 8.7 19 30 1027.6 0 19.5 26.7 40.8 107.0 100.3 344.8
Salmon Gums Rs 07/09 03:30 11.2 96 9.73 10.6 11 17 1013.1 0 22.2 28.6 45.9 120.8 117.6 405.1
Shannon 07/09 03:30 8 88 7.28 6.1 6 7 1013.1 0 17.0 25.4 37.2 97.6 87.7 300.1
Shark Bay Airport 07/09 03:30 15.2 85 11.03 12.7 19 26 1020.8 0 24.7 29.8 49.5 130.2 130.3 450.1
Solomon Airport 07/09 03:30 14.4 56 6.92 5.7 6 13 1013.6 0 16.0 23.1 33.0 86.4 76.3 261.3
Southern Cross Airport 07/09 03:30 12.3 85 9.23 9.9 15 20 1025.2 0 21.0 27.9 43.7 114.8 110.0 378.7
Swanbourne 07/09 03:30 11.1 100 10.07 11.1 6 11 1013.1 0 22.9 29.2 47.5 124.9 122.6 422.7
Telfer 07/09 03:30 19.1 38 6.23 4.5 9 17 1012.7 0 14.3 21.0 28.8 75.1 64.0 218.7
Thevenard Island 07/09 03:30 19.3 64 10.61 12.3 39 46 1017.3 0 23.6 27.6 45.1 118.6 117.6 406.4
Troughton Island 07/09 05:00 26.2 82 20.19 22.9 20 24 1014.9 0 43.3 41.8 81.7 216.2 239.8 833.1
Truscott 07/09 00:00 25.2 86 20.02 22.7 7 11 1015.6 0 43.1 42.0 82.0 217.0 240.5 835.3
Walpole North 07/09 03:30 11 79 7.91 7.5 7 11 1030.4 0.2 18.2 26.2 39.2 102.4 94.0 322.6
Wandering 07/09 03:30 9.8 96 8.91 9.2 11 15 1013.1 0.4 20.5 27.6 43.2 113.5 108.0 371.5
Warburton 07/09 05:00 16.1 78 10.69 12.3 15 26 1014 2.2 23.9 28.7 47.1 124.1 123.4 426.1
West Angelas 07/09 03:30 12.8 65 7.28 6.4 7 9 1013.6 0 16.8 24.1 35.1 91.8 82.5 282.5
West Musgrave Airport 07/09 03:30 16.2 81 11.17 12.9 7 13 1013.1 7.8 25.0 29.4 49.1 129.2 129.8 448.5
Wiluna Airport 07/09 03:30 15 80 10.26 11.6 24 30 1016.2 0 23.1 28.4 46.1 121.2 119.4 412.1
Witchcliffe West 07/09 03:30 8 86 7.11 5.8 13 20 1030.5 0 16.7 25.8 37.3 97.4 86.6 296.3
Wyndham Airport 07/09 05:00 24 67 14.58 17.5 7 9 1013.9 0 31.7 32.5 58.3 153.8 162.5 563.8
Yampi Sound (Defence) 07/09 03:30 20.3 92 16.18 19 0 0 1018.7 0 35.4 37.1 68.7 181.6 195.3 677.5

Last Refresh: 07-Sep-2026 05:12:03

Bureau of Meteorology